Time;durP1;ratioP1;P1;durP2;ratioP2;P2;SDS_P1;SDS_P2;PMS_P1;PMS_P2;Temp;Humidity;BMP_temperature;BMP_pressure;BME280_temperature;BME280_humidity;BME280_pressure;Samples;Min_cycle;Max_cycle;Signal;HPM_P1;HPM_P2
2022/04/02 00:01:14;;;;;;;3.57;2.43;;;4.60;67.90;;;;;;5093360;28;20160;-65
2022/04/02 00:03:40;;;;;;;5.37;3.00;;;4.60;67.80;;;;;;5093480;28;20164;-64
2022/04/02 00:06:06;;;;;;;8.27;2.73;;;4.60;68.10;;;;;;5093327;28;20171;-64
2022/04/02 00:08:32;;;;;;;10.37;2.30;;;4.60;68.40;;;;;;5075270;28;20196;-65
2022/04/02 00:10:58;;;;;;;7.60;3.03;;;4.50;68.40;;;;;;5093566;28;20165;-66
2022/04/02 00:13:23;;;;;;;5.40;2.50;;;4.40;68.60;;;;;;5093032;28;20189;-66
2022/04/02 00:15:49;;;;;;;6.40;2.70;;;4.60;68.40;;;;;;5092837;28;20205;-65
2022/04/02 00:18:15;;;;;;;6.27;2.50;;;4.40;67.70;;;;;;5093794;28;20161;-65
2022/04/02 00:20:41;;;;;;;8.77;2.13;;;4.40;68.10;;;;;;5093324;28;20415;-64
2022/04/02 00:25:50;;;;;;;4.63;2.40;;;4.20;67.20;;;;;;5092849;28;20173;-64
2022/04/02 00:28:16;;;;;;;13.47;3.00;;;4.30;68.40;;;;;;5092890;28;20162;-64
2022/04/02 00:30:42;;;;;;;4.60;2.47;;;4.30;68.30;;;;;;5093071;28;20498;-65
2022/04/02 00:33:08;;;;;;;7.83;2.40;;;4.20;66.60;;;;;;5094826;28;20164;-64
2022/04/02 00:35:33;;;;;;;6.47;2.30;;;4.00;66.90;;;;;;5094604;28;20196;-66
2022/04/02 00:37:59;;;;;;;6.73;2.90;;;4.00;67.20;;;;;;5086571;28;20180;-66
2022/04/02 00:40:25;;;;;;;10.07;3.00;;;4.10;67.10;;;;;;5079377;28;20170;-66
2022/04/02 00:42:50;;;;;;;4.07;2.43;;;4.10;67.20;;;;;;5079856;28;20166;-65
2022/04/02 00:45:16;;;;;;;3.60;2.20;;;4.00;67.10;;;;;;5065453;28;20174;-64
2022/04/02 00:47:42;;;;;;;11.43;2.63;;;4.00;67.50;;;;;;5084707;28;20171;-65
2022/04/02 00:50:08;;;;;;;5.47;2.30;;;4.20;67.90;;;;;;5081034;28;20165;-65
2022/04/02 00:52:34;;;;;;;3.77;2.73;;;4.00;68.10;;;;;;5079729;28;20172;-66
2022/04/02 00:55:00;;;;;;;5.87;2.80;;;4.00;68.80;;;;;;5078850;28;20242;-64
2022/04/02 00:57:25;;;;;;;6.70;2.73;;;4.10;69.20;;;;;;5076899;28;20244;-65
2022/04/02 00:59:51;;;;;;;4.80;2.60;;;4.00;68.70;;;;;;5077077;28;20324;-66
2022/04/02 01:02:19;;;;;;;5.63;2.67;;;4.10;68.70;;;;;;5067524;28;20188;-65
2022/04/02 01:04:46;;;;;;;10.10;2.80;;;4.10;67.90;;;;;;5087861;28;20166;-66
2022/04/02 01:07:13;;;;;;;8.60;2.67;;;4.00;67.80;;;;;;5102033;28;20243;-65
2022/04/02 01:09:38;;;;;;;4.23;2.63;;;3.90;67.80;;;;;;5083095;28;20157;-66
2022/04/02 01:12:04;;;;;;;5.30;2.70;;;4.00;69.00;;;;;;5064865;28;20190;-65
2022/04/02 01:14:30;;;;;;;9.80;2.83;;;3.70;68.30;;;;;;5081968;28;20207;-65
2022/04/02 01:16:56;;;;;;;5.70;2.50;;;3.70;67.80;;;;;;5084885;28;20250;-66
2022/04/02 01:19:21;;;;;;;8.07;2.37;;;3.60;68.70;;;;;;5088157;28;20695;-66
2022/04/02 01:21:48;;;;;;;8.33;2.63;;;3.70;69.20;;;;;;5086751;28;20184;-64
2022/04/02 01:24:14;;;;;;;4.40;2.40;;;3.70;69.20;;;;;;5077375;28;20182;-65
2022/04/02 01:26:40;;;;;;;3.90;2.33;;;3.70;69.40;;;;;;5076961;28;20619;-66
2022/04/02 01:29:06;;;;;;;5.10;2.50;;;3.70;70.30;;;;;;5076214;28;20180;-64
2022/04/02 01:31:33;;;;;;;11.77;2.83;;;3.60;71.00;;;;;;5076256;28;20206;-65
2022/04/02 01:33:59;;;;;;;3.93;2.60;;;3.60;71.70;;;;;;5075940;28;20160;-65
2022/04/02 01:36:25;;;;;;;8.40;2.80;;;3.60;72.40;;;;;;5076052;28;20213;-64
2022/04/02 01:38:51;;;;;;;11.23;3.03;;;3.50;72.80;;;;;;5063780;28;20238;-63
2022/04/02 01:41:17;;;;;;;4.07;2.83;;;3.50;73.30;;;;;;5096421;28;20166;-65
2022/04/02 01:43:44;;;;;;;5.93;3.13;;;3.40;74.00;;;;;;5095798;28;20187;-65
2022/04/02 01:46:10;;;;;;;6.13;2.43;;;3.20;75.00;;;;;;5095919;28;20163;-65
2022/04/02 01:48:36;;;;;;;6.17;3.23;;;3.10;76.70;;;;;;5096175;28;20152;-65
2022/04/02 01:51:02;;;;;;;6.70;3.07;;;3.20;77.20;;;;;;5094663;28;20167;-65
2022/04/02 01:53:29;;;;;;;7.73;3.07;;;3.30;78.00;;;;;;5095576;28;20163;-65
2022/04/02 01:55:56;;;;;;;4.70;3.10;;;3.30;78.40;;;;;;5095854;28;20230;-64
2022/04/02 01:58:21;;;;;;;6.43;2.83;;;3.20;78.10;;;;;;5095974;28;20220;-65
2022/04/02 02:00:47;;;;;;;5.27;3.03;;;3.10;79.50;;;;;;5092244;28;20194;-66
2022/04/02 02:03:13;;;;;;;3.83;2.73;;;3.30;79.70;;;;;;5096261;28;20169;-65
2022/04/02 02:05:39;;;;;;;7.43;2.87;;;3.40;78.90;;;;;;5095908;28;20162;-65
2022/04/02 02:08:05;;;;;;;8.83;2.93;;;3.40;79.10;;;;;;5095738;28;20167;-66
2022/04/02 02:10:32;;;;;;;3.93;2.70;;;3.20;78.70;;;;;;5078064;28;20187;-65
2022/04/02 02:12:58;;;;;;;7.23;2.90;;;3.00;78.60;;;;;;5095019;28;20151;-65
2022/04/02 02:15:26;;;;;;;5.63;2.80;;;3.10;80.10;;;;;;5095217;28;20190;-64
2022/04/02 02:17:52;;;;;;;4.67;3.00;;;3.10;79.60;;;;;;5094827;28;20615;-65
2022/04/02 02:20:18;;;;;;;11.20;2.93;;;3.00;80.10;;;;;;5095584;28;20174;-65
2022/04/02 02:22:45;;;;;;;3.93;2.87;;;2.90;80.40;;;;;;5095397;28;20242;-65
2022/04/02 02:25:13;;;;;;;5.73;2.87;;;2.90;81.20;;;;;;5094803;28;20606;-66
2022/04/02 02:27:40;;;;;;;4.67;2.57;;;3.10;81.70;;;;;;5077004;28;20285;-65
2022/04/02 02:30:08;;;;;;;6.50;2.37;;;3.00;81.10;;;;;;5095022;28;20210;-65
2022/04/02 02:32:36;;;;;;;6.13;2.47;;;2.90;82.50;;;;;;5094774;28;20154;-65
2022/04/02 02:38:09;;;;;;;4.77;2.60;;;2.90;83.20;;;;;;5095211;28;20676;-66
2022/04/02 02:40:36;;;;;;;3.97;2.50;;;2.60;84.80;;;;;;5095545;28;20250;-65
2022/04/02 02:43:02;;;;;;;8.30;2.87;;;2.70;87.40;;;;;;5095722;28;20238;-66
2022/04/02 02:45:28;;;;;;;6.00;2.37;;;2.80;89.20;;;;;;5095375;28;20159;-65
2022/04/02 02:47:54;;;;;;;5.33;2.77;;;2.70;90.40;;;;;;5094660;28;20159;-65
2022/04/02 02:50:21;;;;;;;8.57;2.80;;;2.50;91.50;;;;;;5077040;28;20240;-67
2022/04/02 02:52:47;;;;;;;5.00;2.30;;;2.60;92.90;;;;;;5076326;28;20175;-66
2022/04/02 02:55:13;;;;;;;2.93;2.07;;;2.60;93.00;;;;;;5094735;28;20250;-66
2022/04/02 02:57:43;;;;;;;4.53;2.60;;;2.60;93.90;;;;;;5094264;28;20279;-65
2022/04/02 03:00:10;;;;;;;4.33;2.67;;;2.30;94.80;;;;;;5094541;28;20239;-65
2022/04/02 03:02:38;;;;;;;5.63;2.37;;;2.30;95.20;;;;;;5097066;28;20231;-67
2022/04/02 03:05:12;;;;;;;8.00;2.43;;;2.30;96.20;;;;;;5095220;28;20208;-66
2022/04/02 03:07:48;;;;;;;4.43;2.83;;;2.20;97.00;;;;;;5095452;28;20151;-67
2022/04/02 03:10:16;;;;;;;7.47;2.73;;;2.10;96.80;;;;;;5095773;28;20182;-65
2022/04/02 03:12:41;;;;;;;3.13;2.37;;;2.10;98.60;;;;;;5096268;28;20171;-65
2022/04/02 03:15:08;;;;;;;7.60;2.73;;;2.30;97.60;;;;;;5096896;28;20244;-65
2022/04/02 03:17:33;;;;;;;4.60;2.70;;;2.20;97.40;;;;;;5098095;28;20224;-64
2022/04/02 03:20:00;;;;;;;4.00;2.20;;;2.10;97.80;;;;;;5099088;28;20158;-65
2022/04/02 03:22:27;;;;;;;4.40;2.73;;;2.10;98.40;;;;;;5099470;28;20170;-66
2022/04/02 03:24:53;;;;;;;4.87;2.40;;;2.20;98.40;;;;;;5099853;28;20167;-67
2022/04/02 03:27:19;;;;;;;2.97;2.20;;;2.10;98.20;;;;;;5099759;28;20159;-64
2022/04/02 03:29:45;;;;;;;3.13;2.33;;;1.90;98.90;;;;;;5077508;28;20235;-64
2022/04/02 03:32:10;;;;;;;5.27;2.30;;;2.10;98.80;;;;;;5094191;28;20624;-67
2022/04/02 03:34:36;;;;;;;3.97;2.53;;;2.10;98.90;;;;;;5093857;28;20282;-67
2022/04/02 03:37:02;;;;;;;5.90;2.43;;;1.80;99.50;;;;;;5094240;28;20271;-65
2022/04/02 03:39:27;;;;;;;6.13;2.10;;;1.80;99.60;;;;;;5093972;28;20171;-66
2022/04/02 03:41:54;;;;;;;9.87;2.47;;;1.70;99.90;;;;;;5094508;28;20574;-66
2022/04/02 03:44:19;;;;;;;4.60;2.00;;;1.80;99.90;;;;;;5076102;28;20179;-64
2022/04/02 03:49:29;;;;;;;4.17;2.30;;;1.60;99.90;;;;;;5093762;28;20554;-65
2022/04/02 03:51:55;;;;;;;4.23;2.33;;;1.60;99.90;;;;;;5075644;28;20182;-65
2022/04/02 03:54:21;;;;;;;7.33;2.27;;;1.50;99.90;;;;;;5093610;28;20544;-65
2022/04/02 03:56:47;;;;;;;5.00;2.23;;;1.50;99.90;;;;;;5093918;28;20178;-65
2022/04/02 03:59:13;;;;;;;5.80;2.40;;;1.40;99.90;;;;;;5093840;28;20552;-65
2022/04/02 04:01:39;;;;;;;4.10;2.10;;;1.60;99.90;;;;;;5093849;28;20151;-65
2022/04/02 04:04:05;;;;;;;6.17;2.70;;;1.50;99.90;;;;;;5093500;28;20159;-65
2022/04/02 04:06:34;;;;;;;2.20;1.90;;;1.40;99.90;;;;;;5094143;28;20617;-65
2022/04/02 04:09:00;;;;;;;5.07;2.10;;;1.30;99.90;;;;;;5093730;28;20505;-66
2022/04/02 04:11:26;;;;;;;5.63;2.33;;;1.40;99.90;;;;;;5093339;28;20288;-66
2022/04/02 04:13:53;;;;;;;3.67;2.10;;;1.40;99.90;;;;;;5092258;28;20506;-66
2022/04/02 04:16:19;;;;;;;6.70;2.20;;;1.20;99.90;;;;;;5093645;28;20270;-65
2022/04/02 04:18:45;;;;;;;4.57;2.43;;;1.20;99.90;;;;;;5093579;28;20163;-65
2022/04/02 04:21:12;;;;;;;3.63;2.17;;;1.30;99.90;;;;;;5093681;28;20166;-64
2022/04/02 04:23:38;;;;;;;2.90;2.13;;;1.20;99.90;;;;;;5093752;28;20155;-64
2022/04/02 04:26:04;;;;;;;3.93;2.33;;;1.10;99.90;;;;;;5093892;28;20550;-65
2022/04/02 04:28:29;;;;;;;3.27;2.33;;;1.30;99.90;;;;;;5093423;28;20213;-65
2022/04/02 04:30:55;;;;;;;3.93;2.40;;;1.30;99.90;;;;;;5093696;28;20480;-66
2022/04/02 04:33:20;;;;;;;5.63;2.47;;;1.20;99.90;;;;;;5093756;28;20254;-65
2022/04/02 04:35:46;;;;;;;3.43;2.43;;;1.20;99.90;;;;;;5093439;28;20193;-65
2022/04/02 04:38:12;;;;;;;2.97;2.30;;;1.20;99.90;;;;;;5080937;28;20272;-65
2022/04/02 04:40:38;;;;;;;3.20;2.10;;;1.20;99.90;;;;;;5105078;28;20155;-66
2022/04/02 04:43:03;;;;;;;4.40;2.60;;;1.10;99.90;;;;;;5107854;28;20159;-65
2022/04/02 04:45:29;;;;;;;7.40;2.40;;;1.20;99.90;;;;;;5107251;28;20183;-65
2022/04/02 04:47:55;;;;;;;4.47;2.40;;;1.10;99.90;;;;;;5105167;28;20178;-66
2022/04/02 04:50:20;;;;;;;2.77;2.00;;;1.10;99.90;;;;;;5098620;28;20530;-65
2022/04/02 04:52:46;;;;;;;4.43;2.30;;;1.10;99.90;;;;;;5095573;28;20639;-64
2022/04/02 04:55:11;;;;;;;6.40;2.50;;;1.10;99.90;;;;;;5097683;28;20257;-68
2022/04/02 04:57:37;;;;;;;3.23;2.13;;;1.10;99.90;;;;;;5097508;28;20174;-65
2022/04/02 05:00:06;;;;;;;4.67;2.40;;;1.20;99.90;;;;;;5078953;28;20186;-66
2022/04/02 05:02:32;;;;;;;4.40;2.10;;;1.20;99.90;;;;;;5097143;28;20210;-65
2022/04/02 05:04:58;;;;;;;5.10;2.53;;;1.00;99.90;;;;;;5079465;28;20179;-66
2022/04/02 05:07:24;;;;;;;3.90;2.50;;;1.10;99.90;;;;;;5097197;28;20182;-67
2022/04/02 05:09:50;;;;;;;3.37;2.50;;;1.10;99.90;;;;;;5095302;28;20151;-66
2022/04/02 05:12:16;;;;;;;6.53;2.37;;;1.20;99.90;;;;;;5095618;28;20547;-64
2022/04/02 05:14:42;;;;;;;4.17;2.67;;;1.00;99.90;;;;;;5093728;28;20198;-64
2022/04/02 05:17:07;;;;;;;10.03;2.73;;;1.10;99.90;;;;;;5092725;28;20516;-65
2022/04/02 05:19:33;;;;;;;3.80;2.30;;;1.20;99.90;;;;;;5093029;28;20250;-66
2022/04/02 05:22:00;;;;;;;5.53;2.20;;;1.10;99.90;;;;;;5093200;28;20170;-65
2022/04/02 05:24:26;;;;;;;5.87;2.60;;;1.20;99.90;;;;;;5094465;28;20159;-66
2022/04/02 05:26:52;;;;;;;4.17;2.40;;;1.10;99.90;;;;;;5096500;28;20171;-65
2022/04/02 05:29:17;;;;;;;4.13;2.97;;;1.20;99.90;;;;;;5078783;28;20285;-65
2022/04/02 05:31:43;;;;;;;4.43;2.73;;;1.20;99.90;;;;;;5097648;28;20159;-65
2022/04/02 05:34:10;;;;;;;4.50;2.40;;;1.40;99.90;;;;;;5098300;28;20163;-66
2022/04/02 05:36:38;;;;;;;5.03;2.03;;;1.20;99.90;;;;;;5099391;28;20277;-66
2022/04/02 05:39:04;;;;;;;2.63;2.30;;;1.20;99.90;;;;;;5102693;28;20211;-65
2022/04/02 05:41:30;;;;;;;3.00;2.20;;;1.30;99.90;;;;;;5097937;28;20159;-67
2022/04/02 05:43:56;;;;;;;4.33;2.63;;;1.20;99.90;;;;;;5097601;28;20167;-65
2022/04/02 05:46:22;;;;;;;3.53;2.30;;;1.20;99.90;;;;;;5101780;28;20181;-66
2022/04/02 05:48:48;;;;;;;3.80;2.80;;;1.30;99.90;;;;;;5102817;28;20486;-65
2022/04/02 05:51:13;;;;;;;2.63;2.07;;;1.30;99.90;;;;;;5102799;28;20182;-64
2022/04/02 05:53:39;;;;;;;3.53;2.27;;;1.20;99.90;;;;;;5111852;28;20558;-66
2022/04/02 05:56:05;;;;;;;5.07;2.33;;;1.20;99.90;;;;;;5096239;28;20248;-66
2022/04/02 05:58:31;;;;;;;4.87;2.67;;;1.20;99.90;;;;;;5095798;28;20246;-65
2022/04/02 06:00:56;;;;;;;2.70;2.00;;;1.30;99.90;;;;;;5095976;28;20167;-64
2022/04/02 06:03:22;;;;;;;5.13;2.37;;;1.30;99.90;;;;;;5096144;28;20163;-66
2022/04/02 06:05:49;;;;;;;2.40;2.00;;;1.50;99.90;;;;;;5111007;28;20199;-65
2022/04/02 06:08:18;;;;;;;7.90;2.70;;;1.50;99.90;;;;;;5095875;28;20219;-65
2022/04/02 06:10:44;;;;;;;5.57;2.60;;;1.50;99.90;;;;;;5095637;28;20174;-66
2022/04/02 06:13:11;;;;;;;3.30;2.23;;;1.50;99.90;;;;;;5095411;28;20250;-65
2022/04/02 06:15:37;;;;;;;4.73;2.33;;;1.60;99.90;;;;;;5095574;28;20652;-66
2022/04/02 06:18:03;;;;;;;4.03;2.30;;;1.70;99.90;;;;;;5095319;28;20163;-67
2022/04/02 06:20:29;;;;;;;7.20;2.50;;;1.50;99.90;;;;;;5095729;28;20167;-65
2022/04/02 06:22:54;;;;;;;4.87;2.43;;;1.50;99.90;;;;;;5077649;28;20220;-67
2022/04/02 06:25:20;;;;;;;9.10;2.67;;;1.50;99.90;;;;;;5094929;28;20182;-65
2022/04/02 06:27:48;;;;;;;3.27;2.37;;;1.60;99.90;;;;;;5095325;28;20159;-65
2022/04/02 06:30:21;;;;;;;3.43;2.43;;;1.50;99.90;;;;;;5095128;28;20182;-65
2022/04/02 06:32:46;;;;;;;5.03;2.63;;;1.60;99.90;;;;;;5094905;28;20166;-64
2022/04/02 06:35:12;;;;;;;6.03;2.33;;;1.80;99.90;;;;;;5094313;28;20195;-67
2022/04/02 06:37:41;;;;;;;3.97;2.60;;;1.90;99.90;;;;;;5076605;28;20181;-64
2022/04/02 06:40:11;;;;;;;4.00;2.50;;;1.70;99.90;;;;;;5095225;28;20625;-66
2022/04/02 06:42:37;;;;;;;3.50;2.43;;;1.50;99.90;;;;;;5094816;28;20208;-65
2022/04/02 06:45:04;;;;;;;5.67;2.67;;;1.70;99.90;;;;;;5094815;28;20272;-67
2022/04/02 06:47:31;;;;;;;5.83;2.57;;;1.60;99.90;;;;;;5095339;28;20481;-66
2022/04/02 06:49:57;;;;;;;3.60;2.33;;;1.70;99.90;;;;;;5095057;28;20289;-66
2022/04/02 06:52:23;;;;;;;3.47;2.30;;;1.90;99.90;;;;;;5077408;28;20500;-64
2022/04/02 06:54:49;;;;;;;4.07;2.17;;;2.00;99.90;;;;;;5094425;28;20227;-65
2022/04/02 06:57:19;;;;;;;4.43;2.43;;;2.00;99.90;;;;;;5095073;28;20170;-66
2022/04/02 06:59:45;;;;;;;4.83;2.93;;;2.00;99.90;;;;;;5088743;28;20184;-67
2022/04/02 07:02:10;;;;;;;3.93;2.47;;;2.10;99.90;;;;;;5073938;28;20221;-66
2022/04/02 07:04:36;;;;;;;2.37;2.17;;;2.10;99.90;;;;;;5056935;28;20199;-67
2022/04/02 07:07:02;;;;;;;4.03;2.27;;;2.20;99.90;;;;;;5074133;28;20171;-66
2022/04/02 07:09:28;;;;;;;4.13;2.47;;;2.40;99.90;;;;;;5074150;28;20607;-65
2022/04/02 07:11:54;;;;;;;5.20;2.63;;;2.30;99.90;;;;;;5056996;28;20171;-66
2022/04/02 07:14:19;;;;;;;4.93;2.70;;;2.30;99.90;;;;;;5056352;28;20605;-67
2022/04/02 07:16:45;;;;;;;5.13;2.80;;;2.20;99.90;;;;;;5074659;28;20160;-65
2022/04/02 07:19:11;;;;;;;4.50;2.27;;;2.20;99.90;;;;;;5074687;28;20167;-68
2022/04/02 07:21:43;;;;;;;3.43;2.47;;;2.40;99.90;;;;;;5078214;28;20160;-68
2022/04/02 07:24:10;;;;;;;2.93;2.40;;;2.30;99.90;;;;;;5074871;28;20167;-66
2022/04/02 07:26:37;;;;;;;3.47;2.30;;;2.50;99.90;;;;;;5076268;28;20156;-66
2022/04/02 07:29:03;;;;;;;3.47;2.20;;;2.80;99.90;;;;;;5087099;28;20175;-67
2022/04/02 07:31:29;;;;;;;3.10;2.20;;;2.60;99.90;;;;;;5086998;28;20183;-66
2022/04/02 07:33:55;;;;;;;2.80;2.07;;;2.80;99.90;;;;;;5084180;28;20164;-68
2022/04/02 07:36:39;;;;;;;4.27;2.10;;;2.80;99.90;;;;;;5075781;28;20219;-67
2022/04/02 07:39:14;;;;;;;4.27;2.13;;;2.70;99.90;;;;;;5074859;28;20674;-66
2022/04/02 07:41:46;;;;;;;5.23;2.27;;;2.70;99.90;;;;;;5075475;28;20498;-66
2022/04/02 07:44:42;;;;;;;2.60;2.10;;;2.80;99.90;;;;;;5074284;28;20160;-66
2022/04/02 07:47:13;;;;;;;3.50;2.47;;;3.00;99.90;;;;;;5074665;28;20225;-66
2022/04/02 07:49:44;;;;;;;5.73;2.53;;;2.80;99.90;;;;;;5076132;28;20159;-66
2022/04/02 07:52:12;;;;;;;3.47;2.00;;;3.10;99.90;;;;;;5076824;28;20201;-66
2022/04/02 07:54:42;;;;;;;6.37;2.23;;;3.30;99.90;;;;;;5076685;28;20216;-65
2022/04/02 07:57:09;;;;;;;4.70;2.30;;;3.20;99.90;;;;;;5059811;28;20172;-66
2022/04/02 07:59:43;;;;;;;5.07;2.37;;;3.50;99.90;;;;;;5075274;28;20612;-66
2022/04/02 08:02:36;;;;;;;3.67;2.37;;;3.70;99.90;;;;;;5073606;28;20155;-65
2022/04/02 08:05:05;;;;;;;4.13;2.43;;;3.70;99.90;;;;;;5073078;28;20191;-66
2022/04/02 08:07:33;;;;;;;5.03;2.53;;;3.90;99.90;;;;;;5073094;28;20611;-65
2022/04/02 08:10:02;;;;;;;5.57;2.20;;;3.70;99.90;;;;;;5073237;28;20712;-65
2022/04/02 08:12:29;;;;;;;3.57;2.23;;;3.50;99.90;;;;;;5073331;28;20160;-66
2022/04/02 08:14:54;;;;;;;9.90;2.90;;;3.80;99.90;;;;;;5073072;28;20341;-67
2022/04/02 08:17:21;;;;;;;4.17;2.27;;;3.70;99.90;;;;;;5073276;28;20195;-66
2022/04/02 08:19:50;;;;;;;6.90;3.37;;;3.70;99.90;;;;;;5073493;28;20562;-65
2022/04/02 08:22:16;;;;;;;6.73;3.27;;;3.50;99.90;;;;;;5055833;28;20592;-66
2022/04/02 08:24:43;;;;;;;3.27;2.23;;;3.90;99.90;;;;;;5074662;28;20169;-68
2022/04/02 08:27:27;;;;;;;4.03;2.30;;;4.40;99.90;;;;;;5073531;28;20158;-65
2022/04/02 08:30:00;;;;;;;5.97;3.07;;;4.50;99.90;;;;;;5072682;28;20203;-66
2022/04/02 08:32:44;;;;;;;4.30;2.10;;;4.60;99.90;;;;;;5072800;28;20575;-66
2022/04/02 08:35:11;;;;;;;3.63;1.87;;;4.60;98.50;;;;;;5074251;28;20207;-65
2022/04/02 08:37:37;;;;;;;5.23;1.77;;;4.50;99.20;;;;;;5075428;28;20175;-65
2022/04/02 08:40:27;;;;;;;2.73;1.57;;;4.60;99.30;;;;;;5075339;28;20175;-65
2022/04/02 08:43:02;;;;;;;3.03;2.27;;;5.00;96.90;;;;;;5074853;28;20213;-66
2022/04/02 08:45:36;;;;;;;2.70;2.00;;;4.60;96.40;;;;;;5073378;28;20517;-65
2022/04/02 08:48:14;;;;;;;4.73;2.20;;;4.70;96.50;;;;;;5073012;28;20221;-64
2022/04/02 08:50:46;;;;;;;2.67;1.93;;;4.40;95.60;;;;;;5072526;28;20162;-65
2022/04/02 08:53:20;;;;;;;2.63;2.00;;;4.20;97.60;;;;;;5073246;28;20168;-67
2022/04/02 08:56:07;;;;;;;3.87;2.37;;;4.30;96.90;;;;;;5072289;28;20230;-64
2022/04/02 08:59:01;;;;;;;3.13;2.30;;;4.30;96.90;;;;;;5072677;28;20178;-64
2022/04/02 09:01:42;;;;;;;6.20;2.80;;;4.30;96.80;;;;;;5076517;28;20252;-64
2022/04/02 09:04:47;;;;;;;4.60;2.40;;;4.50;95.60;;;;;;5076687;28;20259;-66
2022/04/02 09:07:30;;;;;;;3.10;2.10;;;4.60;95.60;;;;;;5076321;28;20176;-66
2022/04/02 09:10:40;;;;;;;3.47;2.17;;;4.40;95.20;;;;;;5076719;28;20179;-65
2022/04/02 09:13:23;;;;;;;4.23;2.20;;;4.50;95.50;;;;;;5065930;28;20345;-65
2022/04/02 09:16:07;;;;;;;4.83;2.43;;;4.50;93.90;;;;;;5076989;28;20289;-65
2022/04/02 09:18:59;;;;;;;3.23;1.87;;;4.60;94.20;;;;;;5076667;28;20550;-66
2022/04/02 09:21:50;;;;;;;4.83;2.20;;;4.50;94.20;;;;;;5076719;28;20502;-65
2022/04/02 09:25:04;;;;;;;2.67;1.93;;;5.00;94.10;;;;;;5068918;28;20195;-65
2022/04/02 09:27:51;;;;;;;3.50;2.20;;;5.20;93.30;;;;;;5044390;28;20639;-64
2022/04/02 09:30:42;;;;;;;6.70;2.37;;;5.10;93.20;;;;;;5077431;28;20201;-66
2022/04/02 09:33:21;;;;;;;3.67;1.90;;;5.00;92.20;;;;;;5078758;28;20180;-66
2022/04/02 09:36:01;;;;;;;4.47;2.50;;;4.90;93.40;;;;;;5079393;28;20202;-66
2022/04/02 09:38:43;;;;;;;3.10;1.97;;;4.90;92.90;;;;;;5079730;28;20238;-66
2022/04/02 09:41:28;;;;;;;3.40;2.30;;;4.80;93.10;;;;;;5080374;28;20162;-65
2022/04/02 09:44:06;;;;;;;5.97;2.50;;;4.90;93.30;;;;;;5082298;28;20214;-65
2022/04/02 09:47:07;;;;;;;3.17;2.10;;;4.80;93.20;;;;;;5061387;28;20159;-66
2022/04/02 09:49:57;;;;;;;4.07;1.93;;;5.10;90.90;;;;;;5071579;28;20182;-66
2022/04/02 09:52:25;;;;;;;5.33;2.10;;;5.10;89.40;;;;;;5076701;28;20168;-65
2022/04/02 09:55:20;;;;;;;4.07;1.97;;;5.00;89.10;;;;;;5076158;28;20242;-64
2022/04/02 09:57:45;;;;;;;3.00;1.93;;;5.10;89.90;;;;;;5075576;28;20156;-67
2022/04/02 10:00:14;;;;;;;2.17;1.50;;;5.50;89.00;;;;;;5076513;28;20160;-68
2022/04/02 10:02:42;;;;;;;3.20;2.40;;;5.80;87.10;;;;;;5076523;28;20160;-66
2022/04/02 10:05:12;;;;;;;1.60;1.50;;;5.70;85.50;;;;;;5076767;28;20464;-67
2022/04/02 10:07:59;;;;;;;1.70;1.47;;;5.60;83.50;;;;;;5077130;28;20166;-65
2022/04/02 10:10:28;;;;;;;2.47;1.90;;;5.30;84.60;;;;;;5076568;28;20252;-68
2022/04/02 10:12:56;;;;;;;7.03;2.27;;;5.40;82.90;;;;;;5077895;28;20187;-65
2022/04/02 10:15:25;;;;;;;1.50;1.40;;;5.60;81.80;;;;;;5079144;28;20211;-66
2022/04/02 10:17:53;;;;;;;1.80;1.60;;;5.60;79.90;;;;;;5061948;28;20183;-65
2022/04/02 10:20:23;;;;;;;2.20;2.00;;;5.70;79.00;;;;;;5075537;28;20159;-66
2022/04/02 10:23:02;;;;;;;3.37;2.17;;;6.20;77.00;;;;;;5075499;28;20171;-65
2022/04/02 10:25:31;;;;;;;2.80;1.87;;;6.10;75.70;;;;;;5076023;28;20246;-67
2022/04/02 10:28:00;;;;;;;2.07;1.53;;;6.80;72.20;;;;;;5075534;28;20163;-68
2022/04/02 10:30:26;;;;;;;1.93;1.67;;;6.90;68.10;;;;;;5078683;28;20187;-70
2022/04/02 10:35:46;;;;;;;5.50;1.97;;;6.70;67.10;;;;;;5075258;28;20202;-66
2022/04/02 10:38:24;;;;;;;2.67;1.53;;;6.40;65.80;;;;;;5068411;28;20492;-69
2022/04/02 10:40:52;;;;;;;1.43;1.33;;;6.20;66.50;;;;;;5075400;28;20510;-66
2022/04/02 10:43:29;;;;;;;1.73;1.60;;;6.40;65.90;;;;;;5074848;28;20170;-65
2022/04/02 10:45:58;;;;;;;5.33;3.20;;;6.70;64.20;;;;;;5074676;28;20191;-65
2022/04/02 10:48:55;;;;;;;5.87;2.87;;;7.10;62.40;;;;;;5056980;28;20576;-70
2022/04/02 10:51:25;;;;;;;2.93;1.90;;;6.90;60.30;;;;;;5072196;28;20189;-66
2022/04/02 10:54:13;;;;;;;3.00;2.00;;;7.30;59.40;;;;;;5074129;28;20188;-66
2022/04/02 10:56:44;;;;;;;3.70;1.70;;;7.30;59.30;;;;;;5055633;28;20242;-65
2022/04/02 10:59:12;;;;;;;1.90;1.37;;;6.90;57.10;;;;;;5076074;28;20603;-65
2022/04/02 11:01:46;;;;;;;3.53;1.97;;;6.50;55.90;;;;;;5058119;28;20175;-66
2022/04/02 11:04:34;;;;;;;2.97;1.97;;;6.50;56.90;;;;;;5077247;28;20170;-67
2022/04/02 11:07:00;;;;;;;4.37;2.30;;;6.90;56.60;;;;;;5077071;28;20221;-66
2022/04/02 11:09:41;;;;;;;5.07;1.43;;;7.40;55.80;;;;;;5074855;28;20170;-65
2022/04/02 11:12:17;;;;;;;7.33;1.60;;;7.20;53.90;;;;;;5056763;28;20181;-66
2022/04/02 11:14:45;;;;;;;6.57;2.00;;;7.40;53.70;;;;;;5075945;28;20201;-65
2022/04/02 11:17:47;;;;;;;1.40;1.30;;;6.90;52.40;;;;;;5074460;28;20170;-65
2022/04/02 11:20:20;;;;;;;5.07;2.33;;;6.90;52.40;;;;;;5077987;28;20170;-66
2022/04/02 11:22:51;;;;;;;5.57;1.80;;;7.00;52.50;;;;;;5076041;28;20151;-66
2022/04/02 11:25:34;;;;;;;5.73;1.90;;;7.20;52.30;;;;;;5077315;28;20220;-65
2022/04/02 11:28:08;;;;;;;5.50;2.20;;;6.90;51.20;;;;;;5075613;28;20163;-66
2022/04/02 11:30:44;;;;;;;6.63;1.87;;;7.00;51.60;;;;;;5074232;28;20163;-64
2022/04/02 11:33:10;;;;;;;2.53;1.90;;;7.00;51.00;;;;;;5056523;28;20270;-66
2022/04/02 11:35:48;;;;;;;4.97;2.03;;;6.80;51.40;;;;;;5074081;28;20270;-65
2022/04/02 11:38:20;;;;;;;2.77;1.90;;;7.10;51.10;;;;;;5074259;28;20181;-65
2022/04/02 11:40:54;;;;;;;5.50;1.73;;;7.20;50.30;;;;;;5073779;28;20222;-64
2022/04/02 11:43:34;;;;;;;4.13;2.00;;;7.50;50.40;;;;;;5073882;28;20186;-64
2022/04/02 11:46:02;;;;;;;2.43;1.83;;;7.50;50.00;;;;;;5077484;28;20267;-66
2022/04/02 11:48:35;;;;;;;3.67;1.80;;;7.40;49.20;;;;;;5080286;28;20186;-65
2022/04/02 11:51:19;;;;;;;1.97;1.60;;;7.40;49.40;;;;;;5058996;28;20182;-65
2022/04/02 11:53:44;;;;;;;2.00;1.60;;;7.50;49.80;;;;;;5076226;28;20163;-67
2022/04/02 11:56:24;;;;;;;4.07;1.97;;;7.70;50.20;;;;;;5074821;28;20762;-67
2022/04/02 11:58:51;;;;;;;2.57;1.90;;;7.50;50.10;;;;;;5076274;28;20531;-67
2022/04/02 12:01:21;;;;;;;1.83;1.43;;;7.80;50.80;;;;;;5077138;28;20173;-63
2022/04/02 12:04:04;;;;;;;4.10;2.10;;;7.40;50.50;;;;;;5077831;28;20181;-65
2022/04/02 12:06:35;;;;;;;2.77;2.13;;;7.30;50.10;;;;;;5075012;28;20248;-67
2022/04/02 12:09:28;;;;;;;2.93;1.50;;;7.50;49.90;;;;;;5074603;28;20252;-66
2022/04/02 12:12:05;;;;;;;4.73;1.53;;;7.60;49.60;;;;;;5076496;28;20282;-65
2022/04/02 12:14:41;;;;;;;2.00;1.53;;;7.50;48.90;;;;;;5078233;28;20185;-66
2022/04/02 12:17:09;;;;;;;3.00;1.40;;;7.40;48.90;;;;;;5079040;28;20184;-65
2022/04/02 12:19:39;;;;;;;1.47;1.37;;;7.60;48.40;;;;;;5077101;28;20169;-65
2022/04/02 12:22:27;;;;;;;1.30;1.20;;;7.80;48.70;;;;;;5075301;28;20206;-64
2022/04/02 12:24:57;;;;;;;3.10;1.53;;;8.10;48.60;;;;;;5078624;28;20187;-65
2022/04/02 12:27:25;;;;;;;2.60;1.57;;;8.30;48.00;;;;;;5077767;28;20192;-65
2022/04/02 12:29:54;;;;;;;1.87;1.67;;;8.20;47.90;;;;;;5078433;28;20172;-67
2022/04/02 12:32:40;;;;;;;2.57;1.50;;;8.00;47.50;;;;;;5078655;28;20170;-67
2022/04/02 12:35:12;;;;;;;1.97;1.50;;;8.40;48.00;;;;;;5093748;28;20190;-67
2022/04/02 12:37:46;;;;;;;1.57;1.37;;;8.30;47.70;;;;;;5098825;28;20209;-66
2022/04/02 12:40:24;;;;;;;2.73;1.50;;;8.40;47.70;;;;;;5099000;28;20174;-67
2022/04/02 12:43:05;;;;;;;2.50;1.27;;;8.50;46.80;;;;;;5098236;28;20173;-66
2022/04/02 12:45:32;;;;;;;5.33;2.10;;;8.30;48.10;;;;;;5081161;28;20177;-66
2022/04/02 12:48:14;;;;;;;3.30;1.70;;;8.20;48.70;;;;;;5101425;28;20182;-66
2022/04/02 12:50:59;;;;;;;2.20;1.60;;;8.50;48.90;;;;;;5100415;28;20158;-66
2022/04/02 12:53:36;;;;;;;1.90;1.60;;;8.20;48.70;;;;;;5101365;28;20226;-66
2022/04/02 12:56:08;;;;;;;2.50;1.50;;;8.10;49.60;;;;;;5100593;28;20237;-67
2022/04/02 12:58:43;;;;;;;4.20;1.50;;;8.20;49.90;;;;;;5097322;28;20662;-66
2022/04/02 13:01:13;;;;;;;2.57;1.70;;;8.20;48.40;;;;;;5097060;28;20168;-65
2022/04/02 13:03:45;;;;;;;2.70;2.10;;;8.00;48.60;;;;;;5097003;28;20158;-65
2022/04/02 13:06:22;;;;;;;2.17;1.70;;;8.00;48.70;;;;;;5097429;28;20174;-68
2022/04/02 13:08:55;;;;;;;2.07;1.63;;;8.00;48.80;;;;;;5097241;28;20566;-65
2022/04/02 13:11:45;;;;;;;2.10;1.57;;;8.00;48.60;;;;;;5096983;28;20183;-66
2022/04/02 13:14:15;;;;;;;3.13;1.83;;;8.00;48.60;;;;;;5097158;28;20200;-66
2022/04/02 13:16:42;;;;;;;2.77;1.70;;;8.00;48.30;;;;;;5096406;28;20192;-66
2022/04/02 13:22:02;;;;;;;4.03;1.80;;;7.90;48.50;;;;;;5096279;28;20220;-65
2022/04/02 13:24:33;;;;;;;3.77;1.73;;;8.10;48.80;;;;;;5097106;28;20172;-65
2022/04/02 13:27:17;;;;;;;4.23;1.93;;;8.10;48.70;;;;;;5096614;28;20492;-65
2022/04/02 13:29:57;;;;;;;2.80;1.70;;;8.10;48.60;;;;;;5096436;28;20166;-64